createdAt,value
2023-03-24T00:03:02.512Z,82.57
2023-03-24T00:08:08.271Z,82.27
2023-03-24T00:13:11.191Z,82.05
2023-03-24T00:18:14.149Z,82.35
2023-03-24T00:23:19.257Z,82.99
2023-03-24T00:28:22.481Z,83.38
2023-03-24T00:33:25.465Z,82.94
2023-03-24T00:38:30.108Z,83.06
2023-03-24T00:43:33.489Z,83.45
2023-03-24T00:48:38.262Z,83.13
2023-03-24T00:53:43.706Z,83.65
2023-03-24T00:58:46.698Z,84.01
2023-03-24T01:03:50.821Z,85.46
2023-03-24T01:08:56.058Z,84.82
2023-03-24T01:13:59.080Z,85.16
2023-03-24T01:19:02.054Z,85.94
2023-03-24T01:24:07.815Z,85.53
2023-03-24T01:29:11.417Z,85.51
2023-03-24T01:34:14.358Z,85.55
2023-03-24T01:39:18.703Z,84.89
2023-03-24T01:44:27.398Z,85.26
2023-03-24T01:49:34.449Z,85.73
2023-03-24T01:54:43.027Z,84.02
2023-03-24T01:59:50.715Z,83.08
2023-03-24T02:05:15.776Z,84.74
2023-03-24T02:10:24.511Z,82.94
2023-03-24T02:15:31.232Z,81.03
2023-03-24T02:21:21.871Z,81.46
2023-03-24T02:26:45.396Z,83.59
2023-03-24T02:32:09.267Z,83.15
2023-03-24T02:37:47.758Z,84.84
2023-03-24T02:43:06.898Z,84.19
2023-03-24T02:48:24.488Z,83.07
2023-03-24T02:53:34.044Z,83.80
2023-03-24T02:59:20.648Z,84.11
2023-03-24T03:04:34.006Z,86.19
2023-03-24T03:09:41.129Z,85.61
2023-03-24T03:14:50.370Z,86.18
2023-03-24T03:19:59.301Z,84.54
2023-03-24T03:25:05.208Z,84.26
2023-03-24T03:30:15.120Z,85.77
2023-03-24T03:35:23.659Z,85.28
2023-03-24T03:40:32.246Z,86.19
2023-03-24T03:45:44.888Z,86.87
2023-03-24T03:50:48.511Z,88.58
2023-03-24T03:55:52.306Z,86.34
2023-03-24T04:00:57.078Z,87.13
2023-03-24T04:06:31.990Z,89.79
2023-03-24T04:11:51.927Z,88.39
2023-03-24T04:17:16.643Z,89.35
2023-03-24T04:22:30.351Z,91.08
2023-03-24T04:28:02.054Z,94.67
2023-03-24T04:33:10.549Z,95.40
2023-03-24T04:38:18.397Z,96.41
2023-03-24T04:43:36.597Z,96.74
2023-03-24T04:48:44.154Z,95.65
2023-03-24T04:53:53.745Z,96.01
2023-03-24T04:58:58.980Z,96.26
2023-03-24T05:04:04.857Z,96.25
2023-03-24T05:09:07.962Z,95.49
2023-03-24T05:14:11.038Z,90.19
2023-03-24T05:19:15.635Z,91.58
2023-03-24T05:24:18.855Z,93.54
2023-03-24T05:29:21.853Z,96.38
2023-03-24T05:34:26.841Z,95.04
2023-03-24T05:39:41.110Z,94.84
2023-03-24T05:44:53.336Z,88.26
2023-03-24T05:50:03.817Z,87.14
2023-03-24T05:55:09.504Z,83.72
2023-03-24T06:00:17.838Z,84.15
2023-03-24T06:05:30.972Z,83.99
2023-03-24T06:10:36.876Z,83.38
2023-03-24T06:15:42.855Z,82.92
2023-03-24T06:21:05.948Z,83.17
2023-03-24T06:26:12.507Z,81.35
2023-03-24T06:31:37.323Z,82.38
2023-03-24T06:36:41.994Z,79.54
2023-03-24T06:41:45.654Z,79.15
2023-03-24T06:46:48.889Z,79.25
2023-03-24T06:51:54.276Z,79.22
2023-03-24T06:56:58.927Z,78.43
2023-03-24T07:02:12.531Z,78.61
2023-03-24T07:08:02.913Z,77.31
2023-03-24T07:13:07.034Z,76.22
2023-03-24T07:18:13.129Z,76.33
2023-03-24T07:23:20.873Z,76.24
2023-03-24T07:28:35.738Z,76.78
2023-03-24T07:33:39.545Z,74.76
2023-03-24T07:38:43.949Z,73.64
2023-03-24T07:43:52.893Z,73.57
2023-03-24T07:49:11.827Z,73.86
2023-03-24T07:54:27.321Z,72.91
2023-03-24T07:59:31.736Z,73.16
2023-03-24T08:04:42.973Z,70.65
2023-03-24T08:09:55.917Z,71.01
2023-03-24T08:14:58.808Z,71.26
2023-03-24T08:20:03.384Z,70.63
2023-03-24T08:25:11.558Z,71.31
2023-03-24T08:30:17.278Z,71.39
2023-03-24T08:35:23.632Z,70.87
2023-03-24T08:40:29.858Z,71.91
2023-03-24T08:45:33.588Z,71.51
2023-03-24T08:50:38.827Z,71.12
2023-03-24T08:55:45.410Z,71.06
2023-03-24T09:00:49.402Z,72.15
2023-03-24T09:05:52.404Z,70.20
2023-03-24T09:10:56.642Z,70.31
2023-03-24T09:16:01.534Z,71.16
2023-03-24T09:21:04.694Z,69.45
2023-03-24T09:26:09.047Z,70.34
2023-03-24T09:31:12.091Z,69.79
2023-03-24T09:36:15.056Z,68.08
2023-03-24T09:41:21.978Z,69.40
2023-03-24T09:46:30.111Z,69.13
2023-03-24T09:51:37.473Z,67.91
2023-03-24T09:56:47.280Z,65.37
2023-03-24T10:01:52.204Z,64.25
2023-03-24T10:07:01.648Z,64.69
2023-03-24T10:12:23.938Z,65.06
2023-03-24T10:17:38.307Z,63.48
2023-03-24T10:22:51.797Z,63.60
2023-03-24T10:28:01.447Z,63.24
2023-03-24T10:33:04.834Z,61.95
2023-03-24T10:38:18.203Z,62.57
2023-03-24T10:43:24.452Z,60.45
2023-03-24T10:48:44.198Z,59.02
2023-03-24T10:53:49.003Z,58.41
2023-03-24T10:58:53.630Z,58.32
2023-03-24T11:04:00.890Z,57.84
2023-03-24T11:09:20.744Z,60.01
2023-03-24T11:14:27.055Z,61.41
2023-03-24T11:19:32.384Z,62.65
2023-03-24T11:24:38.463Z,61.86
2023-03-24T11:29:43.975Z,62.54
2023-03-24T11:34:51.002Z,62.22
2023-03-24T11:40:16.851Z,62.54
2023-03-24T11:45:28.976Z,61.47
2023-03-24T11:50:35.714Z,61.18
2023-03-24T11:55:47.988Z,63.02
2023-03-24T12:00:58.777Z,61.31
2023-03-24T12:06:16.531Z,62.12
2023-03-24T12:11:27.561Z,60.82
2023-03-24T12:16:41.645Z,60.46
2023-03-24T12:21:59.220Z,61.48
2023-03-24T12:27:02.659Z,60.76
2023-03-24T12:32:36.452Z,62.04
2023-03-24T12:37:49.806Z,64.05
2023-03-24T12:42:59.340Z,65.13
2023-03-24T12:48:17.609Z,65.91
2023-03-24T12:53:36.503Z,65.66
2023-03-24T12:58:44.972Z,65.33
2023-03-24T13:03:55.391Z,67.92
2023-03-24T13:09:08.113Z,69.10
2023-03-24T13:14:16.567Z,68.83
2023-03-24T13:19:24.899Z,69.84
2023-03-24T13:24:28.173Z,69.63
2023-03-24T13:29:49.872Z,69.24
2023-03-24T13:34:59.956Z,66.91
2023-03-24T13:40:10.996Z,68.04
2023-03-24T13:45:28.457Z,67.29
2023-03-24T13:50:35.294Z,67.96
2023-03-24T13:55:40.779Z,68.90
2023-03-24T14:01:06.305Z,72.39
2023-03-24T14:06:11.370Z,85.28
2023-03-24T14:11:45.561Z,86.62
2023-03-24T14:16:54.393Z,87.08
2023-03-24T14:22:12.016Z,88.11
2023-03-24T14:27:37.118Z,88.10
2023-03-24T14:32:45.077Z,87.79
2023-03-24T14:37:55.398Z,86.80
2023-03-24T14:43:06.295Z,88.93
2023-03-24T14:48:24.236Z,86.88
2023-03-24T14:53:28.523Z,85.97
2023-03-24T14:58:39.006Z,83.46
2023-03-24T15:03:50.925Z,83.82
2023-03-24T15:08:58.405Z,83.58
2023-03-24T15:14:03.289Z,83.96
2023-03-24T15:19:10.673Z,83.24
2023-03-24T15:24:29.828Z,81.91
2023-03-24T15:29:32.895Z,84.83
2023-03-24T15:34:40.000Z,84.29
2023-03-24T15:39:49.711Z,83.63
2023-03-24T15:44:54.696Z,81.80
2023-03-24T15:49:59.871Z,79.45
2023-03-24T15:55:09.892Z,80.53
2023-03-24T16:00:16.441Z,78.56
2023-03-24T16:05:22.967Z,81.01
2023-03-24T16:10:39.870Z,82.71
2023-03-24T16:15:45.210Z,82.31
2023-03-24T16:20:48.628Z,82.17
2023-03-24T16:25:53.110Z,81.63
2023-03-24T16:31:01.082Z,82.44
2023-03-24T16:36:04.158Z,82.49
2023-03-24T16:41:13.266Z,82.37
2023-03-24T16:46:17.106Z,81.65
2023-03-24T16:51:20.140Z,79.78
2023-03-24T16:56:26.522Z,82.13
2023-03-24T17:01:33.745Z,81.20
2023-03-24T17:06:38.022Z,81.79
2023-03-24T17:11:44.312Z,81.83
2023-03-24T17:16:50.724Z,81.63
2023-03-24T17:21:59.109Z,82.41
2023-03-24T17:27:04.154Z,81.53
2023-03-24T17:32:07.333Z,81.39
2023-03-24T17:37:10.354Z,82.06
2023-03-24T17:42:14.629Z,82.86
2023-03-24T17:47:17.625Z,82.98
2023-03-24T17:52:21.886Z,81.83
2023-03-24T17:57:26.182Z,81.81
2023-03-24T18:02:29.074Z,81.27
2023-03-24T18:07:32.310Z,80.96
2023-03-24T18:12:36.929Z,81.04
2023-03-24T18:17:40.373Z,80.63
2023-03-24T18:22:43.306Z,81.02
2023-03-24T18:27:47.611Z,80.65
2023-03-24T18:32:50.619Z,81.34
2023-03-24T18:37:53.544Z,82.06
2023-03-24T18:42:57.856Z,82.35
2023-03-24T18:48:00.922Z,81.51
2023-03-24T18:53:04.284Z,82.52
2023-03-24T18:58:15.005Z,82.23
2023-03-24T19:03:18.488Z,82.31
2023-03-24T19:08:21.547Z,82.45
2023-03-24T19:13:25.815Z,83.26
2023-03-24T19:18:28.972Z,81.96
2023-03-24T19:23:32.545Z,82.58
2023-03-24T19:28:37.588Z,82.81
2023-03-24T19:33:41.303Z,82.19
2023-03-24T19:38:45.377Z,80.96
2023-03-24T19:43:50.598Z,80.90
2023-03-24T19:48:53.678Z,80.24
2023-03-24T19:53:56.731Z,80.44
2023-03-24T19:59:01.001Z,80.55
2023-03-24T20:04:03.984Z,81.09
2023-03-24T20:09:06.927Z,81.09
2023-03-24T20:14:11.289Z,81.22
2023-03-24T20:19:14.280Z,80.67
2023-03-24T20:24:17.198Z,81.51
2023-03-24T20:29:21.956Z,81.70
2023-03-24T20:34:25.339Z,80.44
2023-03-24T20:39:28.258Z,82.75
2023-03-24T20:44:32.519Z,82.17
2023-03-24T20:49:35.528Z,82.25
2023-03-24T20:54:38.464Z,82.03
2023-03-24T20:59:42.672Z,81.84
2023-03-24T21:04:45.786Z,83.55
2023-03-24T21:09:48.806Z,83.13
2023-03-24T21:14:53.012Z,82.78
2023-03-24T21:19:56.454Z,83.36
2023-03-24T21:24:59.384Z,82.36
2023-03-24T21:30:03.807Z,82.61
2023-03-24T21:35:08.824Z,82.65
2023-03-24T21:40:12.918Z,82.76
2023-03-24T21:45:19.290Z,82.37
2023-03-24T21:50:23.993Z,82.71
2023-03-24T21:55:30.279Z,82.39
2023-03-24T22:00:39.973Z,81.99
2023-03-24T22:05:44.280Z,82.28
2023-03-24T22:10:47.212Z,81.81
2023-03-24T22:15:56.180Z,81.79
2023-03-24T22:21:03.716Z,81.97
2023-03-24T22:26:08.395Z,82.42
2023-03-24T22:31:14.402Z,80.97
2023-03-24T22:36:17.390Z,81.18
2023-03-24T22:41:20.497Z,81.50
2023-03-24T22:46:24.946Z,80.96
2023-03-24T22:51:28.756Z,81.31
2023-03-24T22:56:31.645Z,81.27
2023-03-24T23:01:36.004Z,80.88
2023-03-24T23:06:40.108Z,80.69
2023-03-24T23:11:43.095Z,80.91
2023-03-24T23:16:47.341Z,80.08
2023-03-24T23:21:50.377Z,79.99
2023-03-24T23:26:53.621Z,80.34
2023-03-24T23:31:57.977Z,80.49
2023-03-24T23:37:03.631Z,80.47
2023-03-24T23:42:06.876Z,80.07
2023-03-24T23:47:11.318Z,80.46
2023-03-24T23:52:14.243Z,81.05
2023-03-24T23:57:17.265Z,81.43
